Impacts METAR Board
IDs:

KCVG - Cincinnati Intl, KY, US

Updated at: 1000 UTC 22 May 2018
Potential Impact None Slight Moderate High
Time 21/22Z 21/23Z 22/00Z 22/01Z 22/02Z 22/03Z 22/04Z 22/05Z 22/06Z 22/07Z 22/08Z 22/09Z 22/10Z
Temp84 82 80 68 69 68 68 68 67 67 67 67 67
Dewpt63 66 66 66 65 67 66 65 65 66 65 66 65
Altim30.01 30.01 30.01 30.06 30.06 30.06 30.06 30.06 30.03 30.02 30.02 30.02 30.02
VIS10 10 10 1.5 9 9 10 10 9 10 10 6 8
CIG300 300 250 39 100 120 120 43 100 90 75 55 47
CoverBKNOVCOVCOVCOVCOVCOVCOVCOVCOVCOVCOVCOVC
FltCatVFRVFRVFRIFRVFRVFRVFRVFRVFRVFRVFRVFRVFR
WX------+TSRA BR-TSRA----VCTS-RA----BR--
WDir2202102502900110120180160180190200200
WSpd7 4 4 21 0 7 6 8 6 5 5 4 7
WGst-- -- -- 28 -- -- -- -- -- -- -- -- --
Raw hourly METARs
KCVG 212152Z 22007KT 10SM FEW049 SCT250 BKN300 29/17 A3001 RMK AO2 SLP153 T02890172
KCVG 212252Z 21004KT 10SM FEW045 FEW075 SCT250 OVC300 28/19 A3001 RMK AO2 SLP153 TCU DSNT S T02780189
KCVG 212352Z 25004KT 10SM FEW045 FEW100 OVC250 27/19 A3001 RMK AO2 LTG DSNT W-N SLP154 CB DSNT S AND SW-N T02670189 10300 20267 55000
KCVG 220100Z 29021G28KT 1 1/2SM R18C/4500VP6000FT +TSRA BR SCT024 BKN039CB OVC048 20/19 A3006 RMK AO2 PK WND 31028/0054 LTG DSNT ALQDS PRESRR FRQ LTGIC ALQDS TS ALQDS MOV NE P0014 T02000189
KCVG 220152Z 00000KT 9SM -TSRA SCT043CB SCT060 OVC100 21/18 A3006 RMK AO2 PK WND 31028/0054 LTG DSNT ALQDS SLP169 FRQ LTGICCCCG S-SW TS SE-SW MOV NE P0058 T02060183
KCVG 220252Z 11007KT 9SM FEW008 SCT090 OVC120 20/19 A3006 RMK AO2 LTG DSNT NE AND E RAE33 TSE20 SLP172 TS MOV NE P0004 60062 T02000194 51017
KCVG 220352Z 12006KT 10SM FEW050 OVC120 20/19 A3006 RMK AO2 SLP168 T02000189
KCVG 220452Z 18008KT 10SM VCTS FEW008 BKN043 BKN110 OVC150 20/18 A3006 RMK AO2 SLP170 T02000183 403000194
KCVG 220552Z 16006KT 9SM -RA FEW046 BKN100 OVC110 19/18 A3003 RMK AO2 LTG DSNT E RAB02 TSB07E42 SLP159 TS MOV NE P0023 60085 T01940183 10272 20194 58012
KCVG 220652Z 18005KT 10SM FEW005 SCT055 OVC090 19/19 A3002 RMK AO2 RAE04 SLP154 P0000 T01940189
KCVG 220752Z 19005KT 10SM BKN075 OVC100 19/18 A3002 RMK AO2 SLP156 T01940183
KCVG 220852Z 20004KT 6SM BR FEW003 BKN055 OVC070 19/19 A3002 RMK AO2 SLP157 60000 T01940189 55001
KCVG 220952Z 20007KT 8SM FEW005 OVC047 19/18 A3002 RMK AO2 SLP157 T01940183



Page loaded:  10:14 UTC  |   03:14 AM Pacific  |   04:14 AM Mountain  |   05:14 AM Central  |   06:14 AM Eastern

 

ADVISORIES

FORECASTS

FORECASTS

OBSERVATIONS

USER TOOLS

ABOUT US